createdAt,value
2022-12-15T00:02:44.846Z,6.67
2022-12-15T00:08:02.255Z,6.82
2022-12-15T00:13:17.409Z,6.81
2022-12-15T00:18:32.696Z,7.02
2022-12-15T00:23:48.113Z,6.96
2022-12-15T00:29:02.843Z,6.95
2022-12-15T00:34:17.638Z,7.02
2022-12-15T00:39:16.783Z,6.92
2022-12-15T00:44:20.616Z,6.86
2022-12-15T00:49:38.613Z,6.92
2022-12-15T00:54:54.428Z,6.85
2022-12-15T01:00:09.422Z,6.91
2022-12-15T01:05:25.217Z,7.02
2022-12-15T01:10:40.848Z,6.90
2022-12-15T01:15:55.758Z,6.96
2022-12-15T01:20:56.449Z,6.85
2022-12-15T01:25:54.623Z,6.99
2022-12-15T01:30:51.857Z,6.79
2022-12-15T01:35:55.060Z,6.63
2022-12-15T01:40:53.519Z,6.32
2022-12-15T01:45:56.121Z,6.31
2022-12-15T01:51:00.866Z,6.53
2022-12-15T01:55:58.447Z,6.74
2022-12-15T02:00:55.166Z,6.21
2022-12-15T02:05:52.591Z,5.72
2022-12-15T02:11:02.862Z,6.11
2022-12-15T02:16:03.855Z,5.84
2022-12-15T02:21:02.295Z,5.91
2022-12-15T02:26:11.014Z,6.11
2022-12-15T02:31:26.501Z,6.07
2022-12-15T02:36:27.201Z,6.05
2022-12-15T02:41:34.512Z,6.03
2022-12-15T02:46:35.662Z,6.06
2022-12-15T02:51:40.456Z,6.00
2022-12-15T02:56:44.523Z,5.83
2022-12-15T03:01:44.903Z,5.68
2022-12-15T03:06:42.052Z,5.63
2022-12-15T03:11:38.672Z,5.68
2022-12-15T03:16:35.364Z,5.61
2022-12-15T03:21:32.816Z,5.33
2022-12-15T03:26:31.769Z,5.23
2022-12-15T03:31:28.891Z,5.09
2022-12-15T03:36:25.710Z,5.08
2022-12-15T03:41:23.077Z,5.05
2022-12-15T03:46:19.922Z,5.03
2022-12-15T03:51:16.901Z,4.91
2022-12-15T03:56:13.668Z,5.01
2022-12-15T04:01:12.111Z,4.92
2022-12-15T04:06:09.031Z,4.94
2022-12-15T04:11:05.813Z,4.98
2022-12-15T04:16:03.173Z,5.04
2022-12-15T04:21:00.568Z,5.10
2022-12-15T04:26:17.211Z,4.82
2022-12-15T04:31:35.557Z,4.86
2022-12-15T04:36:53.080Z,4.85
2022-12-15T04:42:07.977Z,4.97
2022-12-15T04:47:23.188Z,4.87
2022-12-15T04:52:39.031Z,4.88
2022-12-15T04:57:53.917Z,4.84
2022-12-15T05:03:11.335Z,4.59
2022-12-15T05:08:30.794Z,4.83
2022-12-15T05:13:45.754Z,4.57
2022-12-15T05:19:00.598Z,4.70
2022-12-15T05:24:16.326Z,4.57
2022-12-15T05:29:31.185Z,4.58
2022-12-15T05:34:28.993Z,4.39
2022-12-15T05:39:26.887Z,4.46
2022-12-15T05:44:24.430Z,4.52
2022-12-15T05:49:22.979Z,4.39
2022-12-15T05:54:20.274Z,4.45
2022-12-15T05:59:18.540Z,4.41
2022-12-15T06:04:15.369Z,4.49
2022-12-15T06:09:17.263Z,4.51
2022-12-15T06:14:14.062Z,4.35
2022-12-15T06:19:11.536Z,4.27
2022-12-15T06:24:11.129Z,4.11
2022-12-15T06:29:08.461Z,4.30
2022-12-15T06:34:06.156Z,4.29
2022-12-15T06:39:05.771Z,4.11
2022-12-15T06:44:08.813Z,4.15
2022-12-15T06:49:05.627Z,4.01
2022-12-15T06:54:03.521Z,4.07
2022-12-15T06:59:02.761Z,4.05
2022-12-15T07:04:04.873Z,3.86
2022-12-15T07:09:02.391Z,3.92
2022-12-15T07:14:00.007Z,4.12
2022-12-15T07:19:00.540Z,4.11
2022-12-15T07:24:07.523Z,4.07
2022-12-15T07:29:05.963Z,4.07
2022-12-15T07:34:05.089Z,4.07
2022-12-15T07:39:02.978Z,4.28
2022-12-15T07:44:08.587Z,4.15
2022-12-15T07:49:33.879Z,4.26
2022-12-15T07:54:33.707Z,4.13
2022-12-15T07:59:34.034Z,4.20
2022-12-15T08:04:31.461Z,4.21
2022-12-15T08:16:03.012Z,4.21
2022-12-15T08:21:12.196Z,4.11
2022-12-15T08:27:04.133Z,4.08
2022-12-15T08:32:25.574Z,4.21
2022-12-15T08:37:30.316Z,4.10
2022-12-15T08:42:33.496Z,4.08
2022-12-15T08:47:36.425Z,4.04
2022-12-15T08:53:00.645Z,4.15
2022-12-15T08:58:05.757Z,4.11
2022-12-15T09:03:04.912Z,4.27
2022-12-15T09:08:06.578Z,4.30
2022-12-15T09:13:24.740Z,4.22
2022-12-15T09:18:26.939Z,4.15
2022-12-15T09:23:27.596Z,4.22
2022-12-15T09:28:38.851Z,4.26
2022-12-15T09:33:44.244Z,4.31
2022-12-15T09:38:44.969Z,4.04
2022-12-15T09:43:50.021Z,3.82
2022-12-15T09:48:52.153Z,3.77
2022-12-15T09:53:55.487Z,3.93
2022-12-15T09:59:01.534Z,3.98
2022-12-15T10:04:09.528Z,4.05
2022-12-15T10:09:15.837Z,4.11
2022-12-15T10:14:17.214Z,4.27
2022-12-15T10:19:17.122Z,4.34
2022-12-15T10:24:44.478Z,4.55
2022-12-15T10:29:53.529Z,4.66
2022-12-15T10:35:13.392Z,4.58
2022-12-15T10:40:18.524Z,4.84
2022-12-15T10:45:30.419Z,4.94
2022-12-15T10:50:30.766Z,4.86
2022-12-15T10:55:51.107Z,4.60
2022-12-15T11:01:10.457Z,4.76
2022-12-15T11:06:15.241Z,4.77
2022-12-15T11:38:41.326Z,4.67
2022-12-15T12:10:08.473Z,4.61
2022-12-15T12:15:22.731Z,4.51
2022-12-15T12:20:27.916Z,4.57
2022-12-15T12:25:43.417Z,4.60
2022-12-15T12:30:45.464Z,4.59
2022-12-15T12:36:08.280Z,4.68
2022-12-15T12:41:43.489Z,4.77
2022-12-15T12:47:07.009Z,4.93
2022-12-15T12:52:36.576Z,4.92
2022-12-15T12:57:41.085Z,5.00
2022-12-15T13:03:11.499Z,5.13
2022-12-15T13:08:24.065Z,5.02
2022-12-15T13:14:02.799Z,5.18
2022-12-15T13:19:08.902Z,5.13
2022-12-15T13:24:21.592Z,5.24
2022-12-15T13:29:22.395Z,5.15
2022-12-15T13:35:08.889Z,5.27
2022-12-15T13:40:27.572Z,5.06
2022-12-15T13:45:42.412Z,5.05
2022-12-15T13:50:44.431Z,4.82
2022-12-15T13:56:11.066Z,4.84
2022-12-15T14:01:32.768Z,4.75
2022-12-15T14:06:50.894Z,4.89
2022-12-15T14:17:22.695Z,5.16
2022-12-15T14:29:31.282Z,5.45
2022-12-15T14:34:50.757Z,5.57
2022-12-15T14:39:52.843Z,5.42
2022-12-15T14:44:58.687Z,5.25
2022-12-15T14:50:18.684Z,5.40
2022-12-15T14:55:41.040Z,5.55
2022-12-15T15:00:55.154Z,5.56
2022-12-15T15:05:59.996Z,5.77
2022-12-15T15:11:10.159Z,5.61
2022-12-15T15:17:13.620Z,5.60
2022-12-15T15:22:30.495Z,5.49
2022-12-15T15:27:35.597Z,5.49
2022-12-15T15:33:04.650Z,5.85
2022-12-15T15:38:05.957Z,5.99
2022-12-15T15:43:15.210Z,6.09
2022-12-15T15:48:28.091Z,6.23
2022-12-15T15:53:35.384Z,6.28
2022-12-15T15:58:43.098Z,6.15
2022-12-15T16:03:55.907Z,6.21
2022-12-15T16:08:59.202Z,6.33
2022-12-15T16:13:56.718Z,6.48
2022-12-15T16:18:53.531Z,6.53
2022-12-15T16:23:59.482Z,6.60
2022-12-15T16:28:59.692Z,6.47
2022-12-15T16:33:58.108Z,6.42
2022-12-15T16:38:58.872Z,6.43
2022-12-15T16:43:57.320Z,6.49
2022-12-15T16:48:56.518Z,6.41
2022-12-15T16:53:53.939Z,6.34
2022-12-15T16:58:57.492Z,6.25
2022-12-15T17:04:09.591Z,6.27
2022-12-15T17:10:02.851Z,6.29
2022-12-15T17:15:24.755Z,6.24
2022-12-15T17:20:33.156Z,6.19
2022-12-15T17:26:09.193Z,6.27
2022-12-15T17:31:02.118Z,6.43
2022-12-15T17:36:01.697Z,6.51
2022-12-15T17:40:58.555Z,6.53
2022-12-15T17:45:57.766Z,6.61
2022-12-15T17:50:54.822Z,6.70
2022-12-15T17:55:52.962Z,6.41
2022-12-15T18:00:51.784Z,6.20
2022-12-15T18:05:50.402Z,6.46
2022-12-15T18:10:47.627Z,6.09
2022-12-15T18:15:46.850Z,6.33
2022-12-15T18:20:45.351Z,6.35
2022-12-15T18:25:42.558Z,6.38
2022-12-15T18:30:39.209Z,6.46
2022-12-15T18:35:39.453Z,6.67
2022-12-15T18:40:36.185Z,6.46
2022-12-15T18:45:34.595Z,6.53
2022-12-15T18:50:31.472Z,6.41
2022-12-15T18:55:30.440Z,6.47
2022-12-15T19:00:28.200Z,5.90
2022-12-15T19:05:29.234Z,5.76
2022-12-15T19:10:27.639Z,5.80
2022-12-15T19:15:24.913Z,5.81
2022-12-15T19:20:40.417Z,5.81
2022-12-15T19:25:37.465Z,5.77
2022-12-15T19:30:40.264Z,5.77
2022-12-15T19:35:40.283Z,5.57
2022-12-15T19:40:37.543Z,5.66
2022-12-15T19:45:35.075Z,5.91
2022-12-15T19:50:35.574Z,6.02
2022-12-15T19:55:33.656Z,5.58
2022-12-15T20:00:30.546Z,5.71
2022-12-15T20:05:27.987Z,5.64
2022-12-15T20:10:31.888Z,5.69
2022-12-15T20:15:29.125Z,5.76
2022-12-15T20:20:26.784Z,5.88
2022-12-15T20:25:25.763Z,6.14
2022-12-15T20:30:25.391Z,6.34
2022-12-15T20:35:22.784Z,6.30
2022-12-15T20:40:21.736Z,6.28
2022-12-15T20:45:20.310Z,6.07
2022-12-15T20:50:26.286Z,6.08
2022-12-15T20:55:23.465Z,5.91
2022-12-15T21:00:21.599Z,5.79
2022-12-15T21:05:19.103Z,5.85
2022-12-15T21:10:16.856Z,5.96
2022-12-15T21:15:14.187Z,5.96
2022-12-15T21:20:14.304Z,5.85
2022-12-15T21:25:16.112Z,5.82
2022-12-15T21:30:16.788Z,5.59
2022-12-15T21:35:15.202Z,5.62
2022-12-15T21:40:16.732Z,5.68
2022-12-15T21:45:14.816Z,5.71
2022-12-15T21:50:11.553Z,5.67
2022-12-15T21:55:14.339Z,5.84
2022-12-15T22:00:12.812Z,5.86
2022-12-15T22:05:15.242Z,5.84
2022-12-15T22:10:12.898Z,5.77
2022-12-15T22:15:18.377Z,5.79
2022-12-15T22:20:16.107Z,5.82
2022-12-15T22:25:17.625Z,5.68
2022-12-15T22:30:15.155Z,5.44
2022-12-15T22:35:13.211Z,5.20
2022-12-15T22:40:10.539Z,5.10
2022-12-15T22:45:14.701Z,5.19
2022-12-15T22:50:15.533Z,5.08
2022-12-15T22:55:15.635Z,4.96
2022-12-15T23:00:14.023Z,5.05
2022-12-15T23:05:14.266Z,5.18
2022-12-15T23:10:30.850Z,5.32
2022-12-15T23:15:46.600Z,5.05
2022-12-15T23:20:43.374Z,5.24
2022-12-15T23:25:40.338Z,5.17
2022-12-15T23:30:37.683Z,5.24
2022-12-15T23:35:35.343Z,5.26
2022-12-15T23:40:32.242Z,5.20
2022-12-15T23:45:28.940Z,5.31
2022-12-15T23:50:26.308Z,4.78
2022-12-15T23:55:23.374Z,4.83
